Plevna, Missouri
Current Conditions -  °F | °C
As of 5:55 PM on Thursday 18 Dec 2014 (Local Time) from KIRK Reporting Station
Overcast Overcast  
Wind Chill: 24°   Ceiling: 1100
Heat Index: 30°   Visibility: 9mi
Dew Point: 27°   Wind: 6mph
Humidity: 88%   Direction: 60°ENE
Pressure: 30.25"   Gusts: NA
Location:  39.97°N, 92.09°W
Report Text: KIRK 182355Z AUTO 06005KT 9SM OVC011 M01/M03 A3025 RMK AO2 SLP257 60001 T10111028 11006 21022 53008
Loading
Personal Weather Stations






























Interactive Weather Map New forecast layout! Learn more

10-Day Weather Forecast

Advertisements
Track Severe Weather on mobile